Time;durP1;ratioP1;P1;durP2;ratioP2;P2;SDS_P1;SDS_P2;PMS_P1;PMS_P2;Temp;Humidity;BMP_temperature;BMP_pressure;BME280_temperature;BME280_humidity;BME280_pressure;Samples;Min_cycle;Max_cycle;Signal;HPM_P1;HPM_P2
2021/08/24 00:01:42;;;;;;;7.28;4.50;;;15.60;50.20;;;;;;5077699;28;20764;-77
2021/08/24 00:04:08;;;;;;;6.47;4.40;;;15.60;50.70;;;;;;5076111;28;20398;-77
2021/08/24 00:06:33;;;;;;;7.10;4.07;;;15.50;50.70;;;;;;5055551;28;20388;-76
2021/08/24 00:08:59;;;;;;;5.70;4.50;;;15.50;50.60;;;;;;5072899;28;20891;-77
2021/08/24 00:11:25;;;;;;;9.33;4.90;;;15.50;50.90;;;;;;5073100;28;20383;-76
2021/08/24 00:13:50;;;;;;;9.27;4.67;;;15.40;50.90;;;;;;5072235;28;20450;-76
2021/08/24 00:16:18;;;;;;;8.90;4.37;;;15.40;50.40;;;;;;5073173;28;20391;-77
2021/08/24 00:18:44;;;;;;;10.25;4.80;;;15.40;50.40;;;;;;5054727;28;20417;-77
2021/08/24 00:21:10;;;;;;;5.00;4.35;;;15.40;50.50;;;;;;5055209;28;20499;-77
2021/08/24 00:23:36;;;;;;;10.88;5.00;;;15.40;50.30;;;;;;5073097;28;20376;-77
2021/08/24 00:26:02;;;;;;;7.30;4.88;;;15.40;50.40;;;;;;5073933;28;20376;-77
2021/08/24 00:28:29;;;;;;;6.60;4.10;;;15.40;50.30;;;;;;5072330;28;20395;-78
2021/08/24 00:30:54;;;;;;;8.40;4.80;;;15.40;49.90;;;;;;5079418;28;20736;-77
2021/08/24 00:33:21;;;;;;;9.20;4.57;;;15.40;50.10;;;;;;5062033;28;20423;-76
2021/08/24 00:35:47;;;;;;;8.00;4.55;;;15.40;49.90;;;;;;5056209;28;20387;-76
2021/08/24 00:38:15;;;;;;;7.30;4.40;;;15.40;50.00;;;;;;5072327;28;20441;-76
2021/08/24 00:40:42;;;;;;;6.60;4.30;;;15.40;49.60;;;;;;5072316;28;20387;-76
2021/08/24 00:43:10;;;;;;;10.20;4.50;;;15.40;49.40;;;;;;5071858;28;20442;-75
2021/08/24 00:45:38;;;;;;;7.65;4.47;;;15.30;49.70;;;;;;5071924;28;20469;-74
2021/08/24 00:48:05;;;;;;;7.70;4.33;;;15.30;49.80;;;;;;5053738;28;20963;-75
2021/08/24 00:50:41;;;;;;;9.70;4.70;;;15.30;49.90;;;;;;5071980;28;20470;-75
2021/08/24 00:53:15;;;;;;;10.30;4.60;;;15.30;49.80;;;;;;5071767;28;20501;-77
2021/08/24 00:55:43;;;;;;;7.40;4.30;;;15.30;50.20;;;;;;5053522;28;20487;-76
2021/08/24 00:58:12;;;;;;;7.40;4.30;;;15.20;50.10;;;;;;5053276;28;20388;-76
2021/08/24 01:00:42;;;;;;;8.73;4.30;;;15.20;50.20;;;;;;5071598;28;20376;-75
2021/08/24 01:03:11;;;;;;;6.40;4.22;;;15.20;50.30;;;;;;5071410;28;20391;-75
2021/08/24 01:05:39;;;;;;;5.55;3.97;;;15.20;50.40;;;;;;5071312;28;20787;-75
2021/08/24 01:08:32;;;;;;;6.70;3.70;;;15.20;50.20;;;;;;5071434;28;20433;-76
2021/08/24 01:11:17;;;;;;;6.72;4.03;;;15.10;50.30;;;;;;5054174;28;20376;-76
2021/08/24 01:13:52;;;;;;;6.00;4.10;;;15.10;50.40;;;;;;5072240;28;20380;-76
2021/08/24 01:17:01;;;;;;;5.50;3.90;;;15.10;50.60;;;;;;5071554;28;20427;-76
2021/08/24 01:19:35;;;;;;;6.97;3.92;;;15.10;50.70;;;;;;5041571;28;20395;-75
2021/08/24 01:22:10;;;;;;;5.85;4.20;;;15.10;50.80;;;;;;5072276;28;20404;-76
2021/08/24 01:24:44;;;;;;;7.30;4.30;;;15.00;50.90;;;;;;5054447;28;20392;-76
2021/08/24 01:27:13;;;;;;;7.28;4.05;;;15.00;50.70;;;;;;5071553;28;20395;-76
2021/08/24 01:30:02;;;;;;;6.05;4.40;;;15.00;50.70;;;;;;5072505;28;20376;-77
2021/08/24 01:32:40;;;;;;;4.83;3.67;;;15.00;50.40;;;;;;5071853;28;20379;-76
2021/08/24 01:35:28;;;;;;;8.60;4.40;;;15.00;50.60;;;;;;5070389;28;20410;-77
2021/08/24 01:37:59;;;;;;;7.47;4.18;;;15.00;50.80;;;;;;5034752;28;20420;-76
2021/08/24 01:41:06;;;;;;;4.25;3.85;;;15.00;50.90;;;;;;5064242;28;20892;-76
2021/08/24 01:43:48;;;;;;;5.03;3.80;;;15.00;50.80;;;;;;5037005;28;20387;-76
2021/08/24 01:46:31;;;;;;;5.35;4.03;;;15.00;50.90;;;;;;5070041;28;20496;-76
2021/08/24 01:49:02;;;;;;;7.78;4.40;;;15.00;50.60;;;;;;5052362;28;20448;-75
2021/08/24 01:51:35;;;;;;;7.22;4.60;;;14.90;50.70;;;;;;5070484;28;20491;-75
2021/08/24 01:54:08;;;;;;;6.53;4.10;;;14.90;50.20;;;;;;5052592;28;20465;-76
2021/08/24 01:56:38;;;;;;;6.55;4.40;;;14.90;50.70;;;;;;5052289;28;20764;-76
2021/08/24 01:59:29;;;;;;;7.43;4.43;;;14.90;50.30;;;;;;5070624;28;20868;-76
2021/08/24 02:02:10;;;;;;;5.82;4.03;;;15.00;50.00;;;;;;5070494;28;20522;-75
2021/08/24 02:04:43;;;;;;;7.78;4.28;;;14.90;49.80;;;;;;5070104;28;20425;-76
2021/08/24 02:07:10;;;;;;;6.35;4.13;;;14.90;50.00;;;;;;5052848;28;20784;-76
2021/08/24 02:09:45;;;;;;;7.45;4.03;;;14.90;50.10;;;;;;5070333;28;20588;-76
2021/08/24 02:12:12;;;;;;;6.87;3.87;;;14.90;50.00;;;;;;5070397;28;20499;-76
2021/08/24 02:14:40;;;;;;;6.43;3.65;;;14.90;50.00;;;;;;5069873;28;20391;-74
2021/08/24 02:17:08;;;;;;;5.35;3.67;;;14.80;49.60;;;;;;5070051;28;20402;-75
2021/08/24 02:19:49;;;;;;;5.97;4.07;;;14.80;49.60;;;;;;5070183;28;20379;-75
2021/08/24 02:22:27;;;;;;;6.30;3.78;;;14.80;49.70;;;;;;5070474;28;20986;-76
2021/08/24 02:25:17;;;;;;;8.65;3.80;;;14.80;50.10;;;;;;5070075;28;20414;-76
2021/08/24 02:27:52;;;;;;;8.18;3.90;;;14.80;50.00;;;;;;5069205;28;20726;-76
2021/08/24 02:30:18;;;;;;;5.05;3.90;;;14.70;50.10;;;;;;5055711;28;20384;-76
2021/08/24 02:32:47;;;;;;;6.27;3.77;;;14.70;49.60;;;;;;5074917;28;20407;-74
2021/08/24 02:35:35;;;;;;;6.97;3.45;;;14.70;49.50;;;;;;5071338;28;20399;-74
2021/08/24 02:38:13;;;;;;;5.93;3.45;;;14.70;49.40;;;;;;5052044;28;20421;-75
2021/08/24 02:40:52;;;;;;;6.43;3.63;;;14.70;50.40;;;;;;5067275;28;20685;-75
2021/08/24 02:43:48;;;;;;;7.60;4.10;;;14.70;50.30;;;;;;5073720;28;20812;-75
2021/08/24 02:46:25;;;;;;;6.32;3.90;;;14.70;50.10;;;;;;5073339;28;20387;-74
2021/08/24 02:49:24;;;;;;;7.90;3.90;;;14.60;49.80;;;;;;5056926;28;20890;-74
2021/08/24 02:51:51;;;;;;;4.85;3.90;;;14.50;50.30;;;;;;5070285;28;20396;-75
2021/08/24 02:54:20;;;;;;;6.90;4.00;;;14.50;51.10;;;;;;5073421;28;20388;-74
2021/08/24 02:56:45;;;;;;;7.85;4.22;;;14.50;51.00;;;;;;5073159;28;20392;-74
2021/08/24 02:59:11;;;;;;;8.80;3.85;;;14.50;51.00;;;;;;5055077;28;20391;-74
2021/08/24 03:01:37;;;;;;;6.50;4.55;;;14.40;51.10;;;;;;5073678;28;20764;-75
2021/08/24 03:04:05;;;;;;;10.60;4.03;;;14.40;51.00;;;;;;5073395;28;20459;-75
2021/08/24 03:06:35;;;;;;;7.35;4.28;;;14.40;51.20;;;;;;5073420;28;20413;-76
2021/08/24 03:09:01;;;;;;;5.18;3.75;;;14.40;51.80;;;;;;5073081;28;20432;-75
2021/08/24 03:11:32;;;;;;;6.63;4.30;;;14.30;51.70;;;;;;5073334;28;20376;-76
2021/08/24 03:14:06;;;;;;;7.75;3.95;;;14.30;51.90;;;;;;5073251;28;20391;-75
2021/08/24 03:16:39;;;;;;;4.68;4.10;;;14.30;51.70;;;;;;5058151;28;20402;-76
2021/08/24 03:19:11;;;;;;;7.65;3.80;;;14.30;52.10;;;;;;5056176;28;20531;-76
2021/08/24 03:21:38;;;;;;;7.95;4.20;;;14.30;51.90;;;;;;5053299;28;20409;-75
2021/08/24 03:24:09;;;;;;;9.57;4.70;;;14.20;52.20;;;;;;5034861;28;20439;-76
2021/08/24 03:26:38;;;;;;;7.65;4.47;;;14.20;52.50;;;;;;5068388;28;20468;-76
2021/08/24 03:29:13;;;;;;;7.28;4.30;;;14.20;52.40;;;;;;5054866;28;20437;-76
2021/08/24 03:31:39;;;;;;;7.82;3.90;;;14.20;52.50;;;;;;5072545;28;20383;-75
2021/08/24 03:34:06;;;;;;;4.55;3.90;;;14.20;52.50;;;;;;5054466;28;20469;-75
2021/08/24 03:36:32;;;;;;;7.72;4.35;;;14.20;52.80;;;;;;5054484;28;20394;-75
2021/08/24 03:38:58;;;;;;;4.72;4.03;;;14.20;53.00;;;;;;5072250;28;20402;-75
2021/08/24 03:41:24;;;;;;;7.85;4.90;;;14.10;53.60;;;;;;5035061;28;20409;-75
2021/08/24 03:43:49;;;;;;;11.80;4.55;;;14.10;54.00;;;;;;5034395;28;20473;-75
2021/08/24 03:46:15;;;;;;;7.70;4.90;;;14.00;54.10;;;;;;5064639;28;20752;-74
2021/08/24 03:48:41;;;;;;;6.18;4.35;;;14.00;54.20;;;;;;5071723;28;20380;-74
2021/08/24 03:51:07;;;;;;;6.72;4.82;;;14.00;54.30;;;;;;5072188;28;20475;-74
2021/08/24 03:53:33;;;;;;;7.00;4.85;;;14.00;54.80;;;;;;5072277;28;20471;-75
2021/08/24 03:55:59;;;;;;;7.10;4.70;;;13.90;54.90;;;;;;5072078;28;20917;-75
2021/08/24 03:58:24;;;;;;;7.00;4.57;;;14.00;55.30;;;;;;5072115;28;20471;-75
2021/08/24 04:00:50;;;;;;;5.65;4.88;;;13.90;55.40;;;;;;5072108;28;20388;-73
2021/08/24 04:03:16;;;;;;;6.78;4.70;;;13.90;55.30;;;;;;5054249;28;20376;-74
2021/08/24 04:05:42;;;;;;;7.88;4.88;;;13.90;55.80;;;;;;5071744;28;20740;-75
2021/08/24 04:08:08;;;;;;;8.90;5.13;;;13.90;56.10;;;;;;5071685;28;20536;-74
2021/08/24 04:10:33;;;;;;;8.60;4.50;;;13.80;56.20;;;;;;5053842;28;20434;-77
2021/08/24 04:12:59;;;;;;;7.43;4.53;;;13.90;56.40;;;;;;5071848;28;20395;-74
2021/08/24 04:15:25;;;;;;;7.73;5.00;;;13.80;57.00;;;;;;5071587;28;20457;-75
2021/08/24 04:17:51;;;;;;;9.57;5.40;;;13.80;57.50;;;;;;5071609;28;20868;-74
2021/08/24 04:20:17;;;;;;;8.97;4.97;;;13.80;57.40;;;;;;5053881;28;20398;-77
2021/08/24 04:22:45;;;;;;;8.57;5.25;;;13.70;57.70;;;;;;5053470;28;20407;-74
2021/08/24 04:25:13;;;;;;;8.82;5.00;;;13.70;57.90;;;;;;5053150;28;20471;-75
2021/08/24 04:27:39;;;;;;;8.57;5.70;;;13.70;57.80;;;;;;5071041;28;20466;-75
2021/08/24 04:30:05;;;;;;;11.13;5.00;;;13.70;57.70;;;;;;5071669;28;20718;-75
2021/08/24 04:32:34;;;;;;;10.63;5.82;;;13.70;57.60;;;;;;5053818;28;20466;-75
2021/08/24 04:34:59;;;;;;;9.73;5.75;;;13.70;57.80;;;;;;5071180;28;20396;-75
2021/08/24 04:37:25;;;;;;;13.30;5.67;;;13.70;58.00;;;;;;5052623;28;20827;-75
2021/08/24 04:39:51;;;;;;;10.43;5.60;;;13.70;58.30;;;;;;5057811;28;20403;-75
2021/08/24 04:42:17;;;;;;;12.23;5.90;;;13.70;58.20;;;;;;5071504;28;20772;-75
2021/08/24 04:44:42;;;;;;;12.27;6.20;;;13.70;58.00;;;;;;5071298;28;20388;-75
2021/08/24 04:47:08;;;;;;;16.83;5.97;;;13.70;58.30;;;;;;5070821;28;20388;-75
2021/08/24 04:49:34;;;;;;;12.40;6.40;;;13.70;58.00;;;;;;5070898;28;20384;-75
2021/08/24 04:52:00;;;;;;;11.25;6.00;;;13.70;58.10;;;;;;5055789;28;20395;-76
2021/08/24 04:54:33;;;;;;;8.52;6.00;;;13.80;57.90;;;;;;5071493;28;20406;-76
2021/08/24 04:56:59;;;;;;;13.27;6.32;;;13.80;57.40;;;;;;5072251;28;20415;-75
2021/08/24 04:59:24;;;;;;;10.90;6.63;;;13.80;57.30;;;;;;5053147;28;20394;-74
2021/08/24 05:01:50;;;;;;;9.73;6.23;;;13.80;57.30;;;;;;5070981;28;20777;-74
2021/08/24 05:04:15;;;;;;;9.77;6.37;;;13.70;57.80;;;;;;5070780;28;20384;-75
2021/08/24 05:06:41;;;;;;;9.43;5.93;;;13.80;58.10;;;;;;5071494;28;20386;-76
2021/08/24 05:09:06;;;;;;;11.37;6.23;;;13.80;57.60;;;;;;5070435;28;20411;-74
2021/08/24 05:11:32;;;;;;;9.48;6.07;;;13.80;57.20;;;;;;5070881;28;20410;-73
2021/08/24 05:13:57;;;;;;;10.95;6.13;;;13.90;57.20;;;;;;5071196;28;20756;-74
2021/08/24 05:16:23;;;;;;;12.45;6.47;;;13.90;57.40;;;;;;5071309;28;20387;-74
2021/08/24 05:18:49;;;;;;;9.88;6.35;;;13.90;57.70;;;;;;5070424;28;20388;-75
2021/08/24 05:21:14;;;;;;;8.97;6.37;;;13.90;57.40;;;;;;5070490;28;20419;-75
2021/08/24 05:23:41;;;;;;;11.60;6.27;;;14.00;57.20;;;;;;5069765;28;20384;-75
2021/08/24 05:26:13;;;;;;;10.48;6.40;;;14.00;57.50;;;;;;5070550;28;20849;-74
2021/08/24 05:28:39;;;;;;;11.15;6.38;;;14.10;56.60;;;;;;5051730;28;20441;-74
2021/08/24 05:31:05;;;;;;;11.80;6.68;;;14.10;55.90;;;;;;5070834;28;20379;-76
2021/08/24 05:33:31;;;;;;;16.33;6.80;;;14.20;55.30;;;;;;5070177;28;20768;-74
2021/08/24 05:36:00;;;;;;;11.02;6.70;;;14.20;55.00;;;;;;5062181;28;20408;-76
2021/08/24 05:38:27;;;;;;;11.50;7.13;;;14.20;55.40;;;;;;5050182;28;20727;-75
2021/08/24 05:40:55;;;;;;;11.82;7.70;;;14.20;55.90;;;;;;5065008;28;20419;-76
2021/08/24 05:43:21;;;;;;;12.63;7.70;;;14.20;56.40;;;;;;5070010;28;20474;-75
2021/08/24 05:46:03;;;;;;;15.68;7.57;;;14.30;56.10;;;;;;5070390;28;20483;-76
2021/08/24 05:48:30;;;;;;;12.63;8.07;;;14.30;55.40;;;;;;5070206;28;20380;-75
2021/08/24 05:50:56;;;;;;;12.18;7.93;;;14.40;55.20;;;;;;5070108;28;20378;-75
2021/08/24 05:53:23;;;;;;;12.00;7.73;;;14.50;54.50;;;;;;5070155;28;20721;-76
2021/08/24 05:55:48;;;;;;;16.75;9.07;;;14.50;53.50;;;;;;5050409;28;20404;-75
2021/08/24 05:58:14;;;;;;;12.63;7.50;;;14.60;53.30;;;;;;5050119;28;20417;-74
2021/08/24 06:00:40;;;;;;;14.35;8.13;;;14.70;52.20;;;;;;5050087;28;20382;-74
2021/08/24 06:03:06;;;;;;;12.88;7.82;;;14.80;52.30;;;;;;5050016;28;20403;-74
2021/08/24 06:05:36;;;;;;;16.33;7.50;;;14.80;51.20;;;;;;5067894;28;20427;-75
2021/08/24 06:08:02;;;;;;;11.30;7.70;;;14.80;50.80;;;;;;5070132;28;20379;-73
2021/08/24 06:10:27;;;;;;;13.30;7.60;;;14.90;50.30;;;;;;5070150;28;20960;-74
2021/08/24 06:12:53;;;;;;;12.20;7.47;;;15.00;49.50;;;;;;5072349;28;20449;-75
2021/08/24 06:15:19;;;;;;;14.05;8.07;;;15.10;49.00;;;;;;5073684;28;20448;-74
2021/08/24 06:17:46;;;;;;;12.55;7.60;;;15.30;48.10;;;;;;5073829;28;20719;-73
2021/08/24 06:20:12;;;;;;;16.57;8.70;;;15.40;47.10;;;;;;5074115;28;20753;-74
2021/08/24 06:22:38;;;;;;;15.18;7.93;;;15.50;46.60;;;;;;5073834;28;20399;-73
2021/08/24 06:25:03;;;;;;;12.77;7.10;;;15.60;46.10;;;;;;5073232;28;20395;-74
2021/08/24 06:27:29;;;;;;;18.70;7.70;;;15.60;45.40;;;;;;5072957;28;20387;-73
2021/08/24 06:29:55;;;;;;;9.88;6.97;;;15.70;45.90;;;;;;5073923;28;20392;-73
2021/08/24 06:32:31;;;;;;;12.17;7.10;;;15.80;44.90;;;;;;5073807;28;20398;-73
2021/08/24 06:34:57;;;;;;;14.85;7.85;;;15.90;44.30;;;;;;5090640;22;20964;-70
2021/08/24 06:37:23;;;;;;;14.27;7.28;;;16.00;43.80;;;;;;5073544;28;20376;-68
2021/08/24 06:39:49;;;;;;;10.55;6.90;;;16.10;43.10;;;;;;5073411;28;20388;-68
2021/08/24 06:42:14;;;;;;;9.70;6.80;;;16.10;43.10;;;;;;5073427;28;20494;-68
2021/08/24 06:44:40;;;;;;;10.88;7.07;;;16.10;43.40;;;;;;5072966;28;20399;-68
2021/08/24 06:47:06;;;;;;;19.03;7.83;;;16.20;42.70;;;;;;5071353;28;20395;-68
2021/08/24 06:49:31;;;;;;;8.80;6.67;;;16.30;41.80;;;;;;5072911;28;20798;-69
2021/08/24 06:51:59;;;;;;;13.80;6.90;;;16.30;42.50;;;;;;5073001;28;20399;-69
2021/08/24 06:54:26;;;;;;;13.23;7.43;;;16.50;42.40;;;;;;5073696;28;20904;-69
2021/08/24 06:56:51;;;;;;;13.52;7.45;;;16.50;40.40;;;;;;5071987;28;20439;-70
2021/08/24 06:59:17;;;;;;;11.02;7.45;;;16.50;40.50;;;;;;5070996;28;20438;-70
2021/08/24 07:01:43;;;;;;;10.25;7.22;;;16.50;40.60;;;;;;5072573;28;20461;-70
2021/08/24 07:04:09;;;;;;;10.43;6.90;;;16.60;40.10;;;;;;5072641;28;20787;-69
2021/08/24 07:06:35;;;;;;;8.77;6.45;;;16.60;39.10;;;;;;5055503;28;20378;-70
2021/08/24 07:09:01;;;;;;;11.43;7.40;;;16.70;39.40;;;;;;5066095;28;20395;-69
2021/08/24 07:11:27;;;;;;;11.45;7.03;;;16.70;39.20;;;;;;5072505;28;20391;-70
2021/08/24 07:13:55;;;;;;;14.50;7.80;;;16.70;39.40;;;;;;5071955;28;20458;-70
2021/08/24 07:16:21;;;;;;;10.98;7.20;;;16.90;38.40;;;;;;5073232;28;20864;-68
2021/08/24 07:18:46;;;;;;;17.20;7.40;;;16.90;38.50;;;;;;5072240;28;20406;-69
2021/08/24 07:21:16;;;;;;;13.63;7.90;;;17.00;38.10;;;;;;5072734;28;20713;-70
2021/08/24 07:23:42;;;;;;;12.73;7.85;;;17.20;38.20;;;;;;5071346;28;20406;-70
2021/08/24 07:26:08;;;;;;;11.30;7.40;;;17.30;36.90;;;;;;5072827;28;20773;-70
2021/08/24 07:28:33;;;;;;;14.90;8.07;;;17.40;36.40;;;;;;5065910;28;20406;-70
2021/08/24 07:30:59;;;;;;;13.60;7.73;;;17.40;36.10;;;;;;5072302;28;20399;-70
2021/08/24 07:33:25;;;;;;;15.13;8.40;;;17.40;36.50;;;;;;5071837;28;20486;-70
2021/08/24 07:35:50;;;;;;;19.30;9.10;;;17.60;35.80;;;;;;5071934;28;20817;-69
2021/08/24 07:38:17;;;;;;;19.08;8.98;;;17.60;35.00;;;;;;5071560;28;20421;-70
2021/08/24 07:40:44;;;;;;;17.52;9.40;;;17.70;35.00;;;;;;5072007;28;20388;-69
2021/08/24 07:43:09;;;;;;;18.63;9.20;;;17.70;34.90;;;;;;5071889;28;20526;-69
2021/08/24 07:45:36;;;;;;;23.90;9.30;;;17.80;34.80;;;;;;5071683;28;20392;-69
2021/08/24 07:48:01;;;;;;;20.35;8.80;;;17.90;34.80;;;;;;5070829;28;20396;-69
2021/08/24 07:50:27;;;;;;;15.60;8.57;;;17.90;33.80;;;;;;5072100;28;20383;-69
2021/08/24 07:52:52;;;;;;;15.17;8.60;;;17.90;34.00;;;;;;5071678;28;20383;-68
2021/08/24 07:55:18;;;;;;;21.27;9.17;;;17.90;33.70;;;;;;5071361;28;20399;-69
2021/08/24 07:57:44;;;;;;;19.20;9.17;;;17.80;33.40;;;;;;5071295;28;20578;-69
2021/08/24 08:00:10;;;;;;;19.70;9.80;;;17.70;33.50;;;;;;5072092;28;20391;-68
2021/08/24 08:02:35;;;;;;;20.90;9.25;;;17.80;33.50;;;;;;5071624;28;20418;-68
2021/08/24 08:05:01;;;;;;;18.67;8.37;;;17.70;33.00;;;;;;5071673;28;20729;-68
2021/08/24 08:07:27;;;;;;;17.15;8.77;;;17.80;32.50;;;;;;5071418;28;20383;-70
2021/08/24 08:09:52;;;;;;;21.70;8.35;;;17.90;32.20;;;;;;5071195;28;20388;-70
2021/08/24 08:12:19;;;;;;;15.10;7.77;;;17.90;32.60;;;;;;5071842;28;20748;-69
2021/08/24 08:14:45;;;;;;;14.65;8.75;;;18.10;32.20;;;;;;5071300;28;20442;-69
2021/08/24 08:17:11;;;;;;;19.10;7.75;;;18.10;31.30;;;;;;5071692;28;20388;-70
2021/08/24 08:19:38;;;;;;;16.60;7.75;;;18.10;31.30;;;;;;5071053;28;20392;-69
2021/08/24 08:22:04;;;;;;;15.32;6.10;;;18.20;31.30;;;;;;5071502;28;20418;-68
2021/08/24 08:24:30;;;;;;;8.63;5.13;;;18.30;31.30;;;;;;5071215;28;20475;-70
2021/08/24 08:26:55;;;;;;;8.63;5.23;;;18.50;28.30;;;;;;5069400;28;20411;-70
2021/08/24 08:29:21;;;;;;;15.60;6.17;;;18.50;28.40;;;;;;5065465;28;20394;-69
2021/08/24 08:31:48;;;;;;;9.20;4.43;;;18.60;28.00;;;;;;5071270;28;20388;-71
2021/08/24 08:34:16;;;;;;;12.15;4.95;;;18.80;25.60;;;;;;5059916;28;20400;-70
2021/08/24 08:36:43;;;;;;;15.63;6.97;;;18.70;25.10;;;;;;5070873;28;20395;-70
2021/08/24 08:39:09;;;;;;;14.88;5.20;;;18.80;25.90;;;;;;5070495;28;20727;-70
2021/08/24 08:41:47;;;;;;;15.37;6.50;;;18.90;24.40;;;;;;5071119;28;20414;-71
2021/08/24 08:44:32;;;;;;;9.15;5.25;;;18.90;25.60;;;;;;5068527;28;20474;-69
2021/08/24 08:47:15;;;;;;;11.20;5.53;;;18.90;24.30;;;;;;5066505;28;20407;-70
2021/08/24 08:49:58;;;;;;;9.02;4.90;;;19.00;23.60;;;;;;5070502;28;20798;-70
2021/08/24 08:52:37;;;;;;;7.75;5.00;;;19.10;23.10;;;;;;5071050;28;20403;-70
2021/08/24 08:55:23;;;;;;;7.83;4.80;;;19.10;23.70;;;;;;5070357;28;20391;-71
2021/08/24 08:58:01;;;;;;;4.37;3.63;;;19.10;22.80;;;;;;5065494;28;20399;-71
2021/08/24 09:00:37;;;;;;;14.07;3.90;;;19.20;21.20;;;;;;5052025;28;20374;-69
2021/08/24 09:03:14;;;;;;;29.15;6.85;;;19.30;20.30;;;;;;5070928;28;20760;-70
2021/08/24 09:05:40;;;;;;;67.82;16.23;;;19.40;21.60;;;;;;5070520;28;20930;-70
2021/08/24 09:08:06;;;;;;;18.95;5.60;;;19.50;21.50;;;;;;5069674;28;20391;-69
2021/08/24 09:10:39;;;;;;;37.35;9.98;;;19.60;20.70;;;;;;5067751;28;20937;-69
2021/08/24 09:13:32;;;;;;;21.83;5.53;;;19.70;19.90;;;;;;5070701;28;20490;-69
2021/08/24 09:16:11;;;;;;;11.70;4.97;;;19.70;18.80;;;;;;5070352;28;20417;-71
2021/08/24 09:18:40;;;;;;;17.80;6.07;;;19.70;19.90;;;;;;5070160;28;20391;-69
2021/08/24 09:21:08;;;;;;;9.27;4.15;;;19.80;19.70;;;;;;5070169;28;20444;-69
2021/08/24 09:23:33;;;;;;;11.18;4.35;;;19.80;17.50;;;;;;5070916;28;20407;-69
2021/08/24 09:26:29;;;;;;;4.30;3.30;;;19.80;17.90;;;;;;5052910;28;20432;-69
2021/08/24 09:28:56;;;;;;;13.27;5.30;;;19.80;17.60;;;;;;5061450;28;20427;-70
2021/08/24 09:31:24;;;;;;;7.60;4.13;;;20.00;15.60;;;;;;5070067;28;20763;-70
2021/08/24 09:33:51;;;;;;;10.98;4.15;;;19.90;15.90;;;;;;5069362;28;20479;-69
2021/08/24 09:36:19;;;;;;;9.82;3.38;;;20.00;17.10;;;;;;5070360;28;20422;-69
2021/08/24 09:38:46;;;;;;;20.48;5.50;;;20.00;16.30;;;;;;5061405;28;20401;-69
2021/08/24 09:41:23;;;;;;;6.05;3.50;;;20.20;15.70;;;;;;5050157;28;20904;-69
2021/08/24 09:43:53;;;;;;;7.43;3.00;;;20.30;15.20;;;;;;5051977;28;20381;-69
2021/08/24 09:46:19;;;;;;;5.97;3.05;;;20.30;15.30;;;;;;5070571;28;20387;-70
2021/08/24 09:49:01;;;;;;;8.30;3.50;;;20.40;15.50;;;;;;5069809;28;20395;-70
2021/08/24 09:51:50;;;;;;;6.33;3.90;;;20.50;15.80;;;;;;5070125;28;20388;-70
2021/08/24 09:54:30;;;;;;;4.63;3.60;;;20.50;14.90;;;;;;5068923;28;20384;-69
2021/08/24 09:57:09;;;;;;;5.40;3.10;;;20.50;13.90;;;;;;5069809;28;20752;-69
2021/08/24 09:59:40;;;;;;;7.47;3.22;;;20.30;14.50;;;;;;5069575;28;20883;-69
2021/08/24 10:02:35;;;;;;;5.40;3.45;;;20.30;15.20;;;;;;5070023;28;20507;-69
2021/08/24 10:05:02;;;;;;;7.57;3.70;;;20.40;14.80;;;;;;5069178;28;20773;-69
2021/08/24 10:07:34;;;;;;;7.30;3.47;;;20.40;15.50;;;;;;5069820;28;20372;-70
2021/08/24 10:09:59;;;;;;;5.45;3.50;;;20.50;15.10;;;;;;5068820;28;20478;-71
2021/08/24 10:12:33;;;;;;;6.30;3.63;;;20.70;15.90;;;;;;5069946;28;20518;-69
2021/08/24 10:15:22;;;;;;;4.55;3.10;;;20.80;15.10;;;;;;5069594;28;20395;-70
2021/08/24 10:17:55;;;;;;;6.20;3.40;;;21.00;15.90;;;;;;5069854;28;20454;-70
2021/08/24 10:20:26;;;;;;;6.72;3.63;;;21.10;15.20;;;;;;5071401;28;20937;-70
2021/08/24 10:22:53;;;;;;;6.10;3.93;;;21.20;13.90;;;;;;5071064;28;20440;-70
2021/08/24 10:25:24;;;;;;;6.20;4.00;;;21.10;13.60;;;;;;5070623;28;20399;-70
2021/08/24 10:28:13;;;;;;;9.10;3.90;;;21.20;14.00;;;;;;5061334;28;20388;-70
2021/08/24 10:30:48;;;;;;;8.75;4.07;;;21.30;13.40;;;;;;5070507;28;20396;-70
2021/08/24 10:33:34;;;;;;;9.07;4.00;;;21.20;14.20;;;;;;5064011;28;20382;-69
2021/08/24 10:36:05;;;;;;;10.98;4.70;;;21.30;13.10;;;;;;5061198;28;20396;-70
2021/08/24 10:38:56;;;;;;;6.50;4.00;;;21.20;12.20;;;;;;5069866;28;20388;-70
2021/08/24 10:41:41;;;;;;;11.15;3.92;;;20.90;13.30;;;;;;5069657;28;20391;-70
2021/08/24 10:44:24;;;;;;;15.90;5.00;;;20.90;13.10;;;;;;5069443;28;20490;-70
2021/08/24 10:46:54;;;;;;;9.45;4.40;;;21.00;13.50;;;;;;5068870;28;20388;-70
2021/08/24 10:49:21;;;;;;;9.80;4.50;;;21.10;13.90;;;;;;5068855;28;20463;-70
2021/08/24 10:52:10;;;;;;;9.50;4.65;;;21.10;13.10;;;;;;5069234;28;20441;-70
2021/08/24 10:54:46;;;;;;;9.25;4.95;;;21.20;12.80;;;;;;5069635;28;20395;-71
2021/08/24 10:57:24;;;;;;;10.48;5.25;;;21.20;13.00;;;;;;5069189;28;20469;-70
2021/08/24 11:00:18;;;;;;;32.03;10.55;;;21.30;13.50;;;;;;5072067;28;20399;-70
2021/08/24 11:03:11;;;;;;;31.73;11.75;;;21.40;13.20;;;;;;5072713;28;20896;-70
2021/08/24 11:05:39;;;;;;;11.10;5.68;;;21.60;13.60;;;;;;5053013;28;20390;-70
2021/08/24 11:08:33;;;;;;;30.90;10.80;;;21.80;12.90;;;;;;5065061;28;20709;-69
2021/08/24 11:11:25;;;;;;;36.13;21.42;;;21.80;11.60;;;;;;5072059;28;20524;-71
2021/08/24 11:14:15;;;;;;;13.55;5.95;;;21.90;13.00;;;;;;5072548;28;20388;-70
2021/08/24 11:16:56;;;;;;;12.73;7.72;;;21.90;12.70;;;;;;5052675;28;20477;-70
2021/08/24 11:20:02;;;;;;;12.23;5.78;;;21.90;11.40;;;;;;5063395;28;20401;-69
2021/08/24 11:22:38;;;;;;;6.82;4.40;;;21.80;11.20;;;;;;5072480;28;20408;-69
2021/08/24 11:25:15;;;;;;;10.10;5.15;;;21.60;11.30;;;;;;5072345;28;20474;-70
2021/08/24 11:28:05;;;;;;;8.60;4.80;;;21.60;13.10;;;;;;5054107;28;20410;-70
2021/08/24 11:30:41;;;;;;;7.45;3.90;;;21.60;12.10;;;;;;5072525;28;20380;-69
2021/08/24 11:33:24;;;;;;;9.93;4.60;;;21.20;10.70;;;;;;5072130;28;20894;-70
2021/08/24 11:35:57;;;;;;;9.90;4.90;;;21.20;11.90;;;;;;5059174;28;20396;-69
2021/08/24 11:38:28;;;;;;;7.50;4.43;;;21.30;11.30;;;;;;5071956;28;20376;-70
2021/08/24 11:41:14;;;;;;;8.57;4.40;;;21.20;11.50;;;;;;5072761;28;20805;-70
2021/08/24 11:43:52;;;;;;;7.60;4.87;;;21.30;11.40;;;;;;5072605;28;20752;-69
2021/08/24 11:46:32;;;;;;;7.30;4.28;;;21.40;11.20;;;;;;5072080;28;20736;-70
2021/08/24 11:49:14;;;;;;;8.02;5.00;;;21.50;11.80;;;;;;5070858;28;20387;-69
2021/08/24 11:51:47;;;;;;;6.53;3.90;;;21.60;11.80;;;;;;5073028;28;20432;-73
2021/08/24 11:54:19;;;;;;;7.85;4.40;;;21.60;12.20;;;;;;5072230;28;20392;-73
2021/08/24 11:57:25;;;;;;;6.05;3.50;;;21.70;13.20;;;;;;5072115;28;20473;-69
2021/08/24 11:59:52;;;;;;;4.83;3.60;;;21.90;13.10;;;;;;5072106;28;20759;-69
2021/08/24 12:02:24;;;;;;;9.85;4.00;;;21.90;12.00;;;;;;5071930;28;20737;-69
2021/08/24 12:04:52;;;;;;;6.32;3.60;;;21.90;11.10;;;;;;5072338;28;20376;-70
2021/08/24 12:07:26;;;;;;;4.88;3.38;;;21.80;12.40;;;;;;5072148;28;20421;-71
2021/08/24 12:09:54;;;;;;;7.20;3.60;;;21.90;12.10;;;;;;5071835;28;20477;-72
2021/08/24 12:12:28;;;;;;;7.28;3.80;;;21.90;12.80;;;;;;5072169;28;20463;-70
2021/08/24 12:14:56;;;;;;;5.70;3.33;;;21.90;12.60;;;;;;5072357;28;20533;-70
2021/08/24 12:17:45;;;;;;;4.65;3.40;;;22.00;13.00;;;;;;5071867;28;20414;-70
2021/08/24 12:20:35;;;;;;;10.35;3.53;;;22.10;11.90;;;;;;5071293;28;20873;-70
2021/08/24 12:23:02;;;;;;;3.60;3.15;;;22.10;11.50;;;;;;5071582;28;20395;-70
2021/08/24 12:25:34;;;;;;;4.50;2.90;;;22.20;12.10;;;;;;5071285;28;20577;-73
2021/08/24 12:28:17;;;;;;;7.00;3.70;;;22.40;12.50;;;;;;5066943;28;20394;-72
2021/08/24 12:31:00;;;;;;;10.55;3.30;;;22.50;11.60;;;;;;5072302;28;20399;-74
2021/08/24 12:33:32;;;;;;;6.53;3.40;;;22.60;11.70;;;;;;5071200;28;20466;-72
2021/08/24 12:36:19;;;;;;;17.85;4.03;;;22.50;11.50;;;;;;5102650;22;20434;-76
2021/08/24 12:38:48;;;;;;;16.95;4.65;;;22.60;12.10;;;;;;5092441;28;20389;-75
2021/08/24 12:41:45;;;;;;;12.75;4.13;;;22.70;10.20;;;;;;5057333;28;20884;-75
2021/08/24 12:44:13;;;;;;;14.13;5.43;;;23.00;10.80;;;;;;5052090;28;20513;-77
2021/08/24 12:46:49;;;;;;;10.95;3.90;;;23.20;9.60;;;;;;5092360;28;20451;-75
2021/08/24 12:49:15;;;;;;;8.43;3.35;;;23.20;9.60;;;;;;5091445;28;20389;-76
2021/08/24 12:52:15;;;;;;;11.25;3.83;;;23.20;9.60;;;;;;5092634;28;20906;-75
2021/08/24 12:54:50;;;;;;;13.00;4.03;;;23.50;10.40;;;;;;5089508;28;20398;-77
2021/08/24 12:57:37;;;;;;;7.07;3.20;;;23.80;8.10;;;;;;5098637;28;20385;-76
2021/08/24 13:00:40;;;;;;;6.72;3.55;;;23.80;7.80;;;;;;5093030;28;20404;-76
2021/08/24 13:03:24;;;;;;;6.65;3.60;;;24.00;8.30;;;;;;5093445;28;20406;-77
2021/08/24 13:06:18;;;;;;;10.75;3.58;;;24.20;8.20;;;;;;5092223;28;20382;-75
2021/08/24 13:08:45;;;;;;;7.97;3.80;;;24.50;8.30;;;;;;5072718;28;20442;-75